Time;durP1;ratioP1;P1;durP2;ratioP2;P2;SDS_P1;SDS_P2;PMS_P1;PMS_P2;Temp;Humidity;BMP_temperature;BMP_pressure;BME280_temperature;BME280_humidity;BME280_pressure;Samples;Min_cycle;Max_cycle;Signal;HPM_P1;HPM_P2
2023/09/27 00:01:49;;;;;;;8.15;2.30;;;;;;;18.97;61.02;101947.81;5037172;28;20041;-56
2023/09/27 00:04:15;;;;;;;2.85;2.40;;;;;;;18.96;61.06;101954.19;5037012;28;20029;-56
2023/09/27 00:06:41;;;;;;;2.90;2.08;;;;;;;18.97;60.65;101955.06;5035320;28;20403;-56
2023/09/27 00:09:07;;;;;;;3.30;2.38;;;;;;;18.96;60.91;101956.91;5036563;28;20109;-56
2023/09/27 00:11:33;;;;;;;2.28;2.08;;;;;;;18.96;60.88;101959.59;5036522;28;20061;-56
2023/09/27 00:13:58;;;;;;;2.45;2.20;;;;;;;18.96;60.85;101956.91;5036566;28;20041;-56
2023/09/27 00:16:24;;;;;;;2.50;2.30;;;;;;;18.96;60.84;101956.91;5036701;28;20037;-56
2023/09/27 00:18:49;;;;;;;2.40;2.20;;;;;;;18.96;60.88;101956.91;5036349;28;20029;-56
2023/09/27 00:21:15;;;;;;;2.55;2.05;;;;;;;18.95;60.75;101958.75;5036402;28;20057;-56
2023/09/27 00:23:40;;;;;;;2.53;2.33;;;;;;;18.95;60.83;101958.75;5036345;28;20483;-56
2023/09/27 00:26:06;;;;;;;3.05;2.38;;;;;;;18.95;60.37;101966.00;5035954;28;20112;-57
2023/09/27 00:28:31;;;;;;;2.38;2.13;;;;;;;18.95;60.96;101961.44;5035869;28;20064;-56
2023/09/27 00:30:56;;;;;;;2.53;2.33;;;;;;;18.95;60.78;101963.28;5036018;28;20395;-56
2023/09/27 00:33:22;;;;;;;2.42;2.20;;;;;;;18.94;60.52;101957.03;5036316;28;20025;-56
2023/09/27 00:35:50;;;;;;;2.50;2.30;;;;;;;18.94;60.65;101956.16;5036320;28;20064;-55
2023/09/27 00:38:16;;;;;;;2.20;2.00;;;;;;;18.93;60.76;101958.00;5038789;28;20037;-56
2023/09/27 00:40:48;;;;;;;2.33;2.15;;;;;;;18.93;60.69;101949.06;5036685;28;20032;-56
2023/09/27 00:43:27;;;;;;;3.15;2.10;;;;;;;18.94;60.90;101961.56;5035159;28;20132;-56
2023/09/27 00:45:59;;;;;;;2.60;2.20;;;;;;;18.93;60.33;101958.00;5034127;28;20383;-56
2023/09/27 00:48:25;;;;;;;2.45;2.20;;;;;;;18.93;60.66;101951.78;5036075;28;20036;-56
2023/09/27 00:50:53;;;;;;;2.10;1.90;;;;;;;18.92;60.64;101948.22;5035930;28;20037;-56
2023/09/27 00:53:20;;;;;;;2.35;2.15;;;;;;;18.92;60.59;101952.72;5035825;28;20029;-56
2023/09/27 00:55:46;;;;;;;2.78;2.58;;;;;;;18.91;60.54;101946.50;5035615;28;20041;-56
2023/09/27 00:58:17;;;;;;;3.30;2.42;;;;;;;18.92;60.29;101947.34;5035938;28;20038;-56
2023/09/27 01:00:44;;;;;;;3.10;2.30;;;;;;;18.92;60.63;101953.63;5035585;28;20049;-56
2023/09/27 01:03:10;;;;;;;2.58;2.17;;;;;;;18.91;60.68;101951.03;5035788;28;20029;-56
2023/09/27 01:05:36;;;;;;;2.50;2.30;;;;;;;18.91;60.69;101949.19;5035181;28;20025;-56
2023/09/27 01:08:02;;;;;;;2.30;2.10;;;;;;;18.92;60.36;101952.72;5035022;28;20037;-56
2023/09/27 01:10:28;;;;;;;2.10;1.88;;;;;;;18.91;60.49;101945.63;5035424;28;20026;-56
2023/09/27 01:12:53;;;;;;;2.20;2.00;;;;;;;18.91;60.55;101948.34;5035360;28;20144;-56
2023/09/27 01:15:19;;;;;;;2.20;2.00;;;;;;;18.90;60.54;101946.59;5034187;28;20551;-56
2023/09/27 01:17:54;;;;;;;2.30;2.10;;;;;;;18.91;60.55;101945.63;5034958;28;20036;-56
2023/09/27 01:20:20;;;;;;;2.25;2.05;;;;;;;18.90;60.67;101952.00;5034430;28;20383;-56
2023/09/27 01:23:05;;;;;;;2.40;2.20;;;;;;;18.90;60.66;101938.50;5035909;28;20045;-56
2023/09/27 01:25:38;;;;;;;2.33;2.00;;;;;;;18.89;60.40;101932.28;5034340;28;20029;-56
2023/09/27 01:28:06;;;;;;;2.83;2.20;;;;;;;18.89;60.21;101923.31;5032684;28;20087;-56
2023/09/27 01:30:32;;;;;;;2.33;2.13;;;;;;;18.89;60.54;101920.63;5035302;28;20188;-56
2023/09/27 01:33:09;;;;;;;2.85;2.38;;;;;;;18.89;60.44;101913.38;5035470;28;20060;-56
2023/09/27 01:35:43;;;;;;;2.80;2.30;;;;;;;18.89;60.38;101915.22;5032727;28;20052;-56
2023/09/27 01:38:10;;;;;;;2.55;2.20;;;;;;;18.87;60.12;101901.84;5034935;28;20083;-56
2023/09/27 01:40:38;;;;;;;2.58;2.30;;;;;;;18.87;60.16;101903.69;5034619;28;20042;-56
2023/09/27 01:43:04;;;;;;;3.03;2.20;;;;;;;18.88;60.19;101902.69;5033295;28;20075;-56
2023/09/27 01:45:30;;;;;;;2.42;2.22;;;;;;;18.88;60.49;101902.69;5034070;28;20040;-56
2023/09/27 01:47:56;;;;;;;1.98;1.88;;;;;;;18.86;60.19;101908.22;5034788;28;20033;-56
2023/09/27 01:50:24;;;;;;;2.20;2.00;;;;;;;18.86;60.67;101915.47;5034114;28;20065;-56
2023/09/27 01:52:53;;;;;;;2.10;1.90;;;;;;;18.86;60.62;101916.31;5027564;28;20048;-56
2023/09/27 01:55:19;;;;;;;2.78;2.10;;;;;;;18.86;60.58;101926.25;5033855;28;20025;-56
2023/09/27 01:57:47;;;;;;;2.10;1.90;;;;;;;18.86;60.43;101910.91;5034172;28;20032;-56
2023/09/27 02:00:17;;;;;;;2.40;1.95;;;;;;;18.86;60.18;101926.25;5034054;28;20555;-56
2023/09/27 02:03:03;;;;;;;2.15;1.90;;;;;;;18.87;60.27;101923.44;5035651;28;20056;-56
2023/09/27 02:05:31;;;;;;;2.30;2.10;;;;;;;18.85;60.41;101920.00;5033382;28;20046;-56
2023/09/27 02:07:56;;;;;;;2.20;2.00;;;;;;;18.85;60.50;101911.03;5037109;28;20467;-56
2023/09/27 02:10:22;;;;;;;2.63;1.90;;;;;;;18.85;59.98;101914.63;5034755;28;20028;-56
2023/09/27 02:12:48;;;;;;;1.98;1.85;;;;;;;18.85;60.39;101916.44;5033852;28;20119;-56
2023/09/27 02:15:15;;;;;;;2.03;1.88;;;;;;;18.84;60.03;101909.34;5035107;28;20116;-56
2023/09/27 02:17:42;;;;;;;1.90;1.80;;;;;;;18.85;60.04;101908.34;5034280;28;20033;-56
2023/09/27 02:20:20;;;;;;;2.00;1.75;;;;;;;18.84;60.26;101904.78;5034543;28;20037;-56
2023/09/27 02:22:47;;;;;;;2.20;2.00;;;;;;;18.84;60.08;101912.03;5035378;28;20034;-56
2023/09/27 02:25:13;;;;;;;2.00;1.88;;;;;;;18.84;60.25;101923.69;5030503;28;20459;-56
2023/09/27 02:27:39;;;;;;;2.15;1.95;;;;;;;18.84;60.45;101909.34;5034114;28;20048;-56
2023/09/27 02:30:07;;;;;;;2.30;1.80;;;;;;;18.84;60.13;101922.84;5033675;28;20115;-56
2023/09/27 02:32:33;;;;;;;2.55;2.35;;;;;;;18.83;60.07;101911.19;5033810;28;20105;-56
2023/09/27 02:34:59;;;;;;;2.25;1.92;;;;;;;18.83;60.19;101921.97;5033551;28;20487;-56
2023/09/27 02:37:24;;;;;;;3.05;1.98;;;;;;;18.83;60.01;101915.69;5033597;28;20123;-56
2023/09/27 02:39:50;;;;;;;2.08;1.75;;;;;;;18.83;60.21;101918.41;5031933;28;20033;-56
2023/09/27 02:42:15;;;;;;;2.40;1.83;;;;;;;18.83;60.08;101923.81;5033535;28;20122;-56
2023/09/27 02:44:40;;;;;;;2.35;2.00;;;;;;;18.83;60.20;101926.50;5033323;28;20034;-56
2023/09/27 02:47:07;;;;;;;2.22;2.00;;;;;;;18.82;60.17;101922.09;5034559;28;20377;-56
2023/09/27 02:49:35;;;;;;;2.80;1.75;;;;;;;18.82;60.08;101924.81;5034479;28;20527;-55
2023/09/27 02:52:00;;;;;;;2.65;2.05;;;;;;;18.82;60.09;101924.81;5034193;28;20033;-56
2023/09/27 02:54:27;;;;;;;2.40;2.20;;;;;;;18.82;59.88;101932.91;5033938;28;20493;-56
2023/09/27 02:56:52;;;;;;;2.20;2.00;;;;;;;18.81;60.01;101921.25;5034198;28;20041;-56
2023/09/27 02:59:17;;;;;;;2.15;1.88;;;;;;;18.81;59.84;101914.97;5034196;28;20104;-56
2023/09/27 03:01:43;;;;;;;1.90;1.80;;;;;;;18.81;59.98;101921.25;5035793;28;20025;-57
2023/09/27 03:04:10;;;;;;;2.72;2.10;;;;;;;18.81;59.80;101923.06;5033066;28;20122;-56
2023/09/27 03:06:39;;;;;;;2.63;2.10;;;;;;;18.81;59.85;101917.66;5029873;28;20030;-56
2023/09/27 03:09:05;;;;;;;2.08;1.88;;;;;;;18.80;60.06;101918.63;5033281;28;20526;-56
2023/09/27 03:11:30;;;;;;;2.03;1.83;;;;;;;18.80;59.78;101906.03;5032848;28;20084;-55
2023/09/27 03:13:56;;;;;;;2.10;1.73;;;;;;;18.80;60.06;101915.94;5031763;28;20037;-56
2023/09/27 03:16:21;;;;;;;2.28;2.08;;;;;;;18.79;59.86;101915.09;5034058;28;20057;-55
2023/09/27 03:18:47;;;;;;;2.25;2.05;;;;;;;18.79;59.96;101914.22;5035015;28;20079;-56
2023/09/27 03:21:12;;;;;;;2.83;2.22;;;;;;;18.79;59.79;101917.78;5034742;28;20379;-56
2023/09/27 03:23:38;;;;;;;1.88;1.77;;;;;;;18.79;59.91;101919.59;5036337;28;20037;-56
2023/09/27 03:26:04;;;;;;;2.35;2.15;;;;;;;18.79;59.65;101925.00;5038037;28;20029;-56
2023/09/27 03:28:30;;;;;;;2.50;2.30;;;;;;;18.78;59.52;101918.75;5037352;28;20048;-55
2023/09/27 03:30:55;;;;;;;1.90;1.70;;;;;;;18.78;59.78;101926.00;5037086;28;20032;-56
2023/09/27 03:33:21;;;;;;;2.33;2.03;;;;;;;18.77;59.81;101935.91;5037356;28;20113;-55
2023/09/27 03:35:46;;;;;;;2.88;2.20;;;;;;;18.76;59.55;101932.38;5037328;28;20033;-56
2023/09/27 03:38:12;;;;;;;3.03;2.20;;;;;;;18.77;59.73;101944.00;5036751;28;20033;-56
2023/09/27 03:40:40;;;;;;;2.17;1.98;;;;;;;18.76;59.73;101943.16;5036852;28;20067;-56
2023/09/27 03:43:05;;;;;;;2.25;2.00;;;;;;;18.76;59.71;101945.00;5036630;28;20704;-56
2023/09/27 03:45:33;;;;;;;2.67;2.13;;;;;;;18.76;59.75;101947.72;5036438;28;20125;-56
2023/09/27 03:47:58;;;;;;;2.22;2.03;;;;;;;18.75;59.83;101938.75;5032576;28;20029;-56
2023/09/27 03:50:24;;;;;;;2.33;2.13;;;;;;;18.76;59.65;101932.38;5036283;28;20076;-56
2023/09/27 03:52:49;;;;;;;2.13;1.83;;;;;;;18.74;59.52;101928.94;5036490;28;20033;-56
2023/09/27 03:55:14;;;;;;;2.65;2.05;;;;;;;18.75;59.56;101922.56;5036122;28;20033;-55
2023/09/27 03:57:41;;;;;;;2.20;2.00;;;;;;;18.75;59.66;101919.00;5035819;28;20076;-55
2023/09/27 04:00:11;;;;;;;2.10;1.90;;;;;;;18.74;59.68;101923.53;5037104;28;20033;-56
2023/09/27 04:02:36;;;;;;;2.22;2.00;;;;;;;18.74;59.42;101928.94;5037184;28;20054;-56
2023/09/27 04:05:04;;;;;;;1.55;1.45;;;;;;;18.74;59.46;101931.63;5036848;28;20065;-56
2023/09/27 04:07:29;;;;;;;2.17;1.77;;;;;;;18.73;59.52;101938.03;5036656;28;20426;-55
2023/09/27 04:09:54;;;;;;;2.20;2.00;;;;;;;18.73;59.69;101937.16;5036814;28;20029;-55
2023/09/27 04:12:20;;;;;;;2.15;1.95;;;;;;;18.74;59.56;101955.06;5036140;28;20503;-55
2023/09/27 04:14:45;;;;;;;1.98;1.80;;;;;;;18.74;59.54;101955.91;5037115;28;20140;-56
2023/09/27 04:17:10;;;;;;;2.05;1.77;;;;;;;18.72;59.46;101963.28;5035639;28;20041;-56
2023/09/27 04:19:36;;;;;;;2.28;1.92;;;;;;;18.73;59.44;101959.63;5032450;28;20035;-56
2023/09/27 04:22:01;;;;;;;2.00;1.77;;;;;;;18.72;59.65;101947.09;5035943;28;20033;-55
2023/09/27 04:24:27;;;;;;;1.60;1.50;;;;;;;18.72;59.38;101947.09;5035684;28;20391;-56
2023/09/27 04:26:53;;;;;;;2.65;2.35;;;;;;;18.71;59.40;101958.00;5035906;28;20038;-56
2023/09/27 04:29:19;;;;;;;2.25;1.77;;;;;;;18.70;59.20;101965.25;5035947;28;20045;-56
2023/09/27 04:31:45;;;;;;;2.20;1.75;;;;;;;18.71;59.37;101966.94;5035459;28;20033;-56
2023/09/27 04:34:11;;;;;;;2.05;1.80;;;;;;;18.71;59.34;101969.66;5035361;28;20060;-55
2023/09/27 04:36:36;;;;;;;1.75;1.65;;;;;;;18.71;59.28;101976.88;5034759;28;20033;-56
2023/09/27 04:39:05;;;;;;;1.73;1.60;;;;;;;18.70;59.47;101981.44;5036244;28;20068;-55
2023/09/27 04:41:30;;;;;;;2.83;1.77;;;;;;;18.70;59.32;101981.44;5033030;28;20083;-55
2023/09/27 04:43:57;;;;;;;2.28;1.95;;;;;;;18.70;59.25;101986.84;5036432;28;20041;-56
2023/09/27 04:46:22;;;;;;;1.45;1.35;;;;;;;18.70;59.45;101985.97;5036528;28;20493;-55
2023/09/27 04:48:48;;;;;;;2.17;1.98;;;;;;;18.70;59.27;101967.94;5035890;28;20037;-55
2023/09/27 04:51:13;;;;;;;2.13;1.92;;;;;;;18.69;59.20;101946.47;5035730;28;20810;-56
2023/09/27 04:53:38;;;;;;;1.80;1.70;;;;;;;18.69;59.10;101928.44;5038620;28;20116;-56
2023/09/27 04:56:06;;;;;;;2.10;1.90;;;;;;;18.67;59.16;101938.50;5035811;28;20039;-55
2023/09/27 04:58:32;;;;;;;2.10;1.80;;;;;;;18.66;59.50;101953.00;5035381;28;20098;-56
2023/09/27 05:00:57;;;;;;;2.00;1.83;;;;;;;18.68;59.43;101964.53;5035232;28;20026;-55
2023/09/27 05:03:22;;;;;;;2.15;1.85;;;;;;;18.67;59.17;101949.31;5030367;28;20037;-55
2023/09/27 05:05:48;;;;;;;2.25;1.90;;;;;;;18.67;59.16;101951.16;5035523;28;20032;-55
2023/09/27 05:08:13;;;;;;;2.30;1.98;;;;;;;18.67;59.33;101954.69;5035586;28;20029;-56
2023/09/27 05:10:39;;;;;;;1.80;1.70;;;;;;;18.67;59.33;101952.00;5035211;28;20426;-55
2023/09/27 05:13:04;;;;;;;2.28;1.98;;;;;;;18.66;59.34;101953.00;5034392;28;20403;-55
2023/09/27 05:15:32;;;;;;;2.40;2.05;;;;;;;18.66;59.02;101961.09;5034370;28;20041;-55
2023/09/27 05:17:57;;;;;;;2.30;2.05;;;;;;;18.65;58.88;101951.25;5034135;28;20396;-55
2023/09/27 05:20:23;;;;;;;2.55;2.03;;;;;;;18.65;59.12;101940.47;5034349;28;20057;-56
2023/09/27 05:22:48;;;;;;;1.90;1.80;;;;;;;18.64;59.06;101944.16;5035559;28;20529;-56
2023/09/27 05:25:14;;;;;;;1.80;1.70;;;;;;;18.64;58.98;101944.16;5035077;28;20083;-55
2023/09/27 05:27:40;;;;;;;1.92;1.80;;;;;;;18.64;59.07;101936.06;5034993;28;20095;-56
2023/09/27 05:30:11;;;;;;;2.40;2.20;;;;;;;18.63;59.00;101937.03;5034957;28;20184;-56
2023/09/27 05:32:37;;;;;;;2.33;2.03;;;;;;;18.64;59.11;101937.91;5035152;28;20041;-56
2023/09/27 05:35:04;;;;;;;2.30;2.00;;;;;;;18.64;59.08;101940.59;5034695;28;20383;-55
2023/09/27 05:37:30;;;;;;;2.22;1.85;;;;;;;18.64;58.72;101948.69;5034858;28;20421;-56
2023/09/27 05:39:55;;;;;;;2.15;1.73;;;;;;;18.64;58.99;101944.16;5034700;28;20114;-56
2023/09/27 05:42:21;;;;;;;3.35;2.00;;;;;;;18.63;59.09;101947.00;5038503;28;20063;-56
2023/09/27 05:44:46;;;;;;;2.63;2.10;;;;;;;18.63;58.70;101936.19;5034215;28;20037;-56
2023/09/27 05:47:11;;;;;;;2.60;2.20;;;;;;;18.63;58.62;101942.44;5033328;28;20387;-55
2023/09/27 05:49:38;;;;;;;1.67;1.50;;;;;;;18.63;58.91;101934.34;5033913;28;20037;-55
2023/09/27 05:52:03;;;;;;;1.75;1.65;;;;;;;18.63;59.00;101926.25;5034116;28;20041;-56
2023/09/27 05:54:29;;;;;;;2.20;1.70;;;;;;;18.64;58.66;101927.09;5032032;28;20135;-55
2023/09/27 05:56:55;;;;;;;2.28;2.08;;;;;;;18.63;58.78;101925.41;5034228;28;20039;-56
2023/09/27 05:59:24;;;;;;;2.63;2.00;;;;;;;18.62;58.59;101924.56;5028957;28;20033;-56
2023/09/27 06:01:50;;;;;;;2.20;1.85;;;;;;;18.62;58.81;101920.97;5035356;28;20127;-56
2023/09/27 06:04:15;;;;;;;2.67;1.67;;;;;;;18.63;58.67;101920.00;5030953;28;20184;-55
2023/09/27 06:06:40;;;;;;;2.47;2.28;;;;;;;18.62;58.69;101919.16;5034603;28;20040;-59
2023/09/27 06:09:06;;;;;;;2.22;2.03;;;;;;;18.63;58.80;101925.41;5034395;28;20052;-56
2023/09/27 06:11:34;;;;;;;2.10;1.90;;;;;;;18.62;59.00;101923.69;5034214;28;20448;-55
2023/09/27 06:13:59;;;;;;;2.28;2.08;;;;;;;18.62;58.68;101915.59;5034542;28;20407;-56
2023/09/27 06:16:24;;;;;;;2.03;1.83;;;;;;;18.62;58.38;101916.47;5034387;28;20033;-56
2023/09/27 06:18:50;;;;;;;2.40;2.20;;;;;;;18.61;58.86;101925.53;5032724;28;20135;-56
2023/09/27 06:21:16;;;;;;;2.50;1.70;;;;;;;18.61;58.61;101930.91;5033833;28;20033;-56
2023/09/27 06:23:41;;;;;;;1.80;1.70;;;;;;;18.61;58.45;101920.13;5033494;28;20087;-56
2023/09/27 06:26:07;;;;;;;2.20;2.00;;;;;;;18.61;58.44;101914.72;5033588;28;20116;-56
2023/09/27 06:28:33;;;;;;;2.35;2.03;;;;;;;18.60;58.33;101904.94;5033713;28;20491;-56
2023/09/27 06:30:59;;;;;;;2.20;2.00;;;;;;;18.61;58.44;101912.03;5033286;28;20044;-56
2023/09/27 06:33:24;;;;;;;2.08;1.88;;;;;;;18.60;58.70;101904.94;5033632;28;20030;-55
2023/09/27 06:35:50;;;;;;;1.77;1.67;;;;;;;18.61;58.84;101901.25;5033145;28;20041;-55
2023/09/27 06:38:21;;;;;;;1.90;1.67;;;;;;;18.61;58.69;101906.66;5033153;28;20029;-55
2023/09/27 06:40:48;;;;;;;;;;;;;;;18.70;58.70;101899.66;5033460;28;20037;-56
2023/09/27 06:43:14;;;;;;;2.10;1.90;;;;;;;18.62;58.62;101905.69;5049462;28;20375;-56
2023/09/27 06:45:40;;;;;;;2.22;1.90;;;;;;;18.62;58.54;101912.88;5034734;28;20126;-56
2023/09/27 06:48:07;;;;;;;2.05;1.95;;;;;;;18.61;58.63;101919.28;5034783;28;20030;-56
2023/09/27 06:50:32;;;;;;;2.40;2.13;;;;;;;18.61;58.79;101913.88;5034526;28;20037;-56
2023/09/27 06:52:58;;;;;;;1.98;1.77;;;;;;;18.61;58.36;101932.78;5034922;28;20134;-55
2023/09/27 06:55:23;;;;;;;2.15;1.90;;;;;;;18.61;58.81;101935.47;5034022;28;20478;-55
2023/09/27 06:57:52;;;;;;;2.45;1.70;;;;;;;18.60;58.43;101937.31;5034417;28;20048;-56
2023/09/27 07:00:27;;;;;;;2.28;2.00;;;;;;;18.61;58.50;101943.56;5037920;28;20071;-56
2023/09/27 07:02:53;;;;;;;2.67;2.30;;;;;;;18.60;58.29;101937.31;5036874;28;20029;-56
2023/09/27 07:05:22;;;;;;;2.35;2.10;;;;;;;18.60;58.48;101931.03;5037585;28;20040;-56
2023/09/27 07:07:52;;;;;;;2.25;2.03;;;;;;;18.59;58.40;101922.09;5037136;28;20025;-56
2023/09/27 07:10:18;;;;;;;2.05;1.83;;;;;;;18.59;58.47;101919.41;5033380;28;20037;-56
2023/09/27 07:12:44;;;;;;;1.92;1.63;;;;;;;18.58;58.43;101920.38;5036789;28;20499;-55
2023/09/27 07:15:13;;;;;;;2.00;1.80;;;;;;;18.60;58.61;101921.13;5036701;28;20034;-55
2023/09/27 07:17:39;;;;;;;2.08;1.70;;;;;;;18.59;58.40;101926.63;5036849;28;20120;-55
2023/09/27 07:20:27;;;;;;;2.30;1.75;;;;;;;18.58;58.64;101933.84;5036549;28;20432;-55
2023/09/27 07:22:56;;;;;;;2.22;2.03;;;;;;;18.59;58.50;101940.97;5035281;28;20436;-56
2023/09/27 07:25:23;;;;;;;2.92;2.03;;;;;;;18.59;58.50;101940.13;5038059;28;20480;-56
2023/09/27 07:27:48;;;;;;;3.10;1.95;;;;;;;18.58;58.44;101944.63;5038174;28;20464;-56
2023/09/27 07:30:17;;;;;;;2.20;2.00;;;;;;;18.58;58.79;101944.63;5037585;28;20078;-55
2023/09/27 07:32:46;;;;;;;1.98;1.77;;;;;;;18.58;58.53;101936.56;5037385;28;20112;-56
2023/09/27 07:35:14;;;;;;;2.03;1.80;;;;;;;18.58;58.31;101933.84;5037154;28;20034;-56
2023/09/27 07:37:40;;;;;;;2.03;1.80;;;;;;;18.58;58.58;101939.25;5036780;28;20538;-55
2023/09/27 07:40:09;;;;;;;2.20;1.98;;;;;;;18.56;58.55;101942.09;5036851;28;20040;-55
2023/09/27 07:42:44;;;;;;;3.58;2.03;;;;;;;18.57;58.58;101940.25;5036732;28;20430;-56
2023/09/27 07:45:21;;;;;;;2.88;2.10;;;;;;;18.57;58.65;101937.56;5032723;28;20033;-56
2023/09/27 07:47:51;;;;;;;1.88;1.77;;;;;;;18.58;58.53;101930.31;5036339;28;20048;-56
2023/09/27 07:50:18;;;;;;;2.00;1.80;;;;;;;18.57;58.24;101929.47;5032244;28;20037;-55
2023/09/27 07:52:44;;;;;;;1.92;1.75;;;;;;;18.59;58.39;101934.72;5036010;28;20040;-56
2023/09/27 07:55:11;;;;;;;2.30;1.88;;;;;;;18.59;58.63;101940.97;5035820;28;20033;-56
2023/09/27 07:57:37;;;;;;;2.22;1.83;;;;;;;18.58;58.50;101949.19;5035729;28;20068;-55
2023/09/27 08:00:08;;;;;;;2.20;1.88;;;;;;;18.59;58.53;101942.81;5035941;28;20417;-56
2023/09/27 08:02:34;;;;;;;2.38;1.90;;;;;;;18.59;58.36;101940.13;5037674;28;20041;-55
2023/09/27 08:05:02;;;;;;;2.28;1.90;;;;;;;18.59;58.28;101937.44;5037815;28;20047;-56
2023/09/27 08:07:28;;;;;;;1.70;1.60;;;;;;;18.58;58.24;101944.63;5037088;28;20064;-56
2023/09/27 08:09:54;;;;;;;2.05;1.70;;;;;;;18.59;58.64;101946.38;5035385;28;20391;-55
2023/09/27 08:12:20;;;;;;;1.98;1.75;;;;;;;18.59;58.53;101954.47;5036324;28;20053;-56
2023/09/27 08:14:45;;;;;;;1.67;1.58;;;;;;;18.59;58.33;101957.16;5036193;28;20044;-56
2023/09/27 08:17:11;;;;;;;2.33;1.88;;;;;;;18.59;58.27;101951.78;5036143;28;20112;-56
2023/09/27 08:19:38;;;;;;;2.13;1.92;;;;;;;18.60;57.90;101944.53;5038001;28;20064;-56
2023/09/27 08:22:03;;;;;;;2.08;1.90;;;;;;;18.59;58.30;101957.16;5036226;28;20032;-56
2023/09/27 08:24:29;;;;;;;2.53;1.83;;;;;;;18.60;58.30;101963.41;5035994;28;20037;-56
2023/09/27 08:26:54;;;;;;;1.90;1.65;;;;;;;18.60;58.49;101968.81;5035815;28;20491;-55
2023/09/27 08:29:21;;;;;;;2.20;2.00;;;;;;;18.60;58.39;101976.88;5035469;28;20398;-56
2023/09/27 08:31:46;;;;;;;1.80;1.70;;;;;;;18.61;58.46;101975.94;5035494;28;20112;-56
2023/09/27 08:34:12;;;;;;;1.88;1.77;;;;;;;18.60;58.63;101969.69;5035287;28;20120;-56
2023/09/27 08:36:37;;;;;;;2.47;2.28;;;;;;;18.60;58.62;101966.97;5035238;28;20034;-56
2023/09/27 08:39:04;;;;;;;1.70;1.60;;;;;;;18.62;58.28;101969.53;5035548;28;20045;-56
2023/09/27 08:41:30;;;;;;;5.25;1.85;;;;;;;18.61;58.47;101974.06;5035225;28;20067;-56
2023/09/27 08:43:57;;;;;;;2.05;1.65;;;;;;;18.61;58.55;101974.06;5035111;28;20048;-56
2023/09/27 08:46:24;;;;;;;1.95;1.75;;;;;;;18.62;58.35;101977.63;5034680;28;20522;-56
2023/09/27 08:48:51;;;;;;;2.25;2.05;;;;;;;18.63;58.20;101965.88;5035775;28;20426;-56
2023/09/27 08:51:17;;;;;;;1.75;1.60;;;;;;;18.63;58.65;101957.78;5036871;28;20091;-56
2023/09/27 08:53:42;;;;;;;2.15;1.92;;;;;;;18.63;58.41;101958.63;5036166;28;20033;-56
2023/09/27 08:56:09;;;;;;;2.28;2.08;;;;;;;18.63;58.29;101955.06;5036281;28;20124;-56
2023/09/27 08:58:36;;;;;;;2.10;1.90;;;;;;;18.64;58.64;101957.66;5035836;28;20086;-56
2023/09/27 09:01:04;;;;;;;1.98;1.70;;;;;;;18.63;58.56;101947.84;5035587;28;20062;-56
2023/09/27 09:03:31;;;;;;;3.42;1.55;;;;;;;18.64;58.33;101957.66;5035081;28;20053;-56
2023/09/27 09:05:56;;;;;;;2.90;1.60;;;;;;;18.64;58.30;101944.16;5034934;28;20432;-56
2023/09/27 09:08:22;;;;;;;1.83;1.73;;;;;;;18.66;58.31;101950.28;5035029;28;20037;-56
2023/09/27 09:10:47;;;;;;;2.50;2.03;;;;;;;18.67;58.53;101954.69;5034501;28;20038;-56
2023/09/27 09:13:12;;;;;;;2.22;1.70;;;;;;;18.67;58.37;101938.50;5034499;28;20058;-56
2023/09/27 09:15:41;;;;;;;1.85;1.70;;;;;;;18.68;58.31;101945.63;5034595;28;20095;-56
2023/09/27 09:18:11;;;;;;;2.08;1.88;;;;;;;18.69;58.27;101938.38;5034614;28;20691;-56
2023/09/27 09:20:54;;;;;;;2.10;1.90;;;;;;;18.70;58.74;101937.44;5034098;28;20029;-55
2023/09/27 09:23:33;;;;;;;1.83;1.60;;;;;;;18.70;58.57;101938.28;5031044;28;20383;-56
2023/09/27 09:26:09;;;;;;;2.58;1.90;;;;;;;18.70;58.25;101938.28;5034127;28;20464;-56
2023/09/27 09:28:51;;;;;;;1.77;1.67;;;;;;;18.72;58.61;101927.38;5033419;28;20029;-56
2023/09/27 09:31:28;;;;;;;1.92;1.60;;;;;;;18.70;58.45;101930.19;5030455;28;20037;-55
2023/09/27 09:34:03;;;;;;;3.00;1.98;;;;;;;18.70;58.63;101927.47;5034082;28;20476;-56
2023/09/27 09:36:29;;;;;;;1.42;1.33;;;;;;;18.70;58.45;101926.63;5032013;28;20494;-56
2023/09/27 09:39:06;;;;;;;2.20;1.70;;;;;;;18.71;58.36;101923.78;5034732;28;20053;-56
2023/09/27 09:41:47;;;;;;;2.85;1.65;;;;;;;18.72;58.43;101933.59;5031421;28;20044;-56
2023/09/27 09:44:18;;;;;;;1.42;1.33;;;;;;;18.71;58.73;101926.47;5033159;28;20084;-56
2023/09/27 09:46:44;;;;;;;2.10;1.83;;;;;;;18.71;58.59;101918.38;5033773;28;20029;-56
2023/09/27 09:49:10;;;;;;;1.73;1.60;;;;;;;18.71;58.60;101909.44;5033618;28;20120;-56
2023/09/27 09:51:41;;;;;;;2.20;1.60;;;;;;;18.71;58.78;101906.75;5033762;28;20120;-56
2023/09/27 09:54:07;;;;;;;1.73;1.63;;;;;;;18.72;58.43;101906.63;5034202;28;20053;-56
2023/09/27 09:56:35;;;;;;;2.30;1.77;;;;;;;18.71;58.36;101886.00;5034244;28;20037;-56
2023/09/27 09:59:07;;;;;;;1.50;1.40;;;;;;;18.73;58.49;101878.69;5033537;28;20455;-56
2023/09/27 10:01:37;;;;;;;1.23;1.13;;;;;;;18.74;58.67;101884.94;5030685;28;20116;-56
2023/09/27 10:04:05;;;;;;;1.40;1.30;;;;;;;18.75;58.42;101883.94;5033699;28;20045;-56
2023/09/27 10:06:31;;;;;;;1.58;1.48;;;;;;;18.75;58.80;101887.50;5034814;28;20029;-56
2023/09/27 10:09:01;;;;;;;1.58;1.48;;;;;;;18.76;58.84;101888.34;5034456;28;20460;-56
2023/09/27 10:11:27;;;;;;;2.15;1.95;;;;;;;18.77;58.44;101879.25;5034183;28;20037;-56
2023/09/27 10:13:54;;;;;;;2.03;1.83;;;;;;;18.77;58.57;101881.94;5034393;28;20440;-56
2023/09/27 10:16:23;;;;;;;1.80;1.70;;;;;;;18.78;58.85;101885.53;5030706;28;20075;-56
2023/09/27 10:18:48;;;;;;;2.28;1.55;;;;;;;18.78;58.85;101885.53;5034385;28;20038;-56
2023/09/27 10:21:14;;;;;;;1.90;1.80;;;;;;;18.79;58.75;101887.22;5032823;28;20506;-56
2023/09/27 10:23:46;;;;;;;1.70;1.48;;;;;;;18.80;58.73;101899.75;5033808;28;20052;-56
2023/09/27 10:26:26;;;;;;;;;;;;;;;18.88;58.58;101892.75;5034305;28;20029;-56
2023/09/27 10:29:03;;;;;;;3.28;1.90;;;;;;;18.83;58.67;101881.50;5033676;28;19920;-56
2023/09/27 10:31:37;;;;;;;2.40;1.45;;;;;;;18.81;58.67;101878.09;5031567;28;20033;-56
2023/09/27 10:34:23;;;;;;;1.50;1.40;;;;;;;18.82;58.93;101868.97;5030021;28;20036;-56
2023/09/27 10:36:48;;;;;;;2.05;1.60;;;;;;;18.82;58.66;101862.75;5029747;28;20160;-55
2023/09/27 10:39:13;;;;;;;1.70;1.60;;;;;;;18.82;58.74;101866.28;5033468;28;20132;-55
2023/09/27 10:41:46;;;;;;;2.10;1.73;;;;;;;18.82;58.59;101857.34;5033515;28;20026;-55
2023/09/27 10:44:13;;;;;;;2.33;1.90;;;;;;;18.81;59.01;101863.72;5033144;28;20033;-56
2023/09/27 10:46:42;;;;;;;1.83;1.60;;;;;;;18.83;58.73;101850.94;5033629;28;20037;-56
2023/09/27 10:49:08;;;;;;;1.70;1.30;;;;;;;18.83;58.87;101856.34;5033261;28;20069;-56
2023/09/27 10:51:33;;;;;;;1.92;1.73;;;;;;;18.82;59.01;101847.41;5034122;28;20021;-56
2023/09/27 10:53:59;;;;;;;1.77;1.63;;;;;;;18.83;59.17;101829.34;5033945;28;20056;-56
2023/09/27 10:56:25;;;;;;;1.70;1.60;;;;;;;18.84;59.00;101828.38;5034140;28;20083;-56
2023/09/27 10:58:50;;;;;;;1.90;1.80;;;;;;;18.84;58.91;101825.69;5033973;28;20136;-56
2023/09/27 11:01:19;;;;;;;1.95;1.75;;;;;;;18.84;58.74;101825.69;5033811;28;20026;-56
2023/09/27 11:03:45;;;;;;;1.77;1.67;;;;;;;18.84;59.02;101826.53;5033692;28;20033;-56
2023/09/27 11:06:11;;;;;;;1.80;1.50;;;;;;;18.86;58.96;101829.13;5034230;28;20030;-56
2023/09/27 11:08:37;;;;;;;1.80;1.63;;;;;;;18.86;58.92;101826.41;5034876;28;20258;-56
2023/09/27 11:11:06;;;;;;;1.52;1.35;;;;;;;18.86;58.69;101821.03;5032831;28;20515;-56
2023/09/27 11:13:32;;;;;;;2.20;1.77;;;;;;;18.87;58.95;101820.06;5029334;28;20056;-56
2023/09/27 11:16:13;;;;;;;1.63;1.52;;;;;;;18.89;59.05;101809.97;5033073;28;20071;-56
2023/09/27 11:18:45;;;;;;;;;;;;;;;18.95;58.68;101813.00;5030129;28;20452;-56
2023/09/27 11:21:12;;;;;;;1.80;1.65;;;;;;;18.89;58.68;101809.97;5032991;28;20263;-56
2023/09/27 11:24:03;;;;;;;2.40;1.90;;;;;;;18.88;58.76;101795.59;5033231;28;20033;-55
2023/09/27 11:26:33;;;;;;;1.95;1.77;;;;;;;18.87;58.89;101788.50;5032351;28;20080;-56
2023/09/27 11:29:05;;;;;;;1.75;1.65;;;;;;;18.87;59.03;101787.66;5034151;28;20052;-56